sensor_id;sensor_type;location;lat;lon;timestamp;temperature;humidity
9640;DHT22;51745;50.872;4.732;2022-12-29T00:01:23;11.10;99.90
9640;DHT22;51745;50.872;4.732;2022-12-29T00:04:11;11.10;99.90
9640;DHT22;51745;50.872;4.732;2022-12-29T00:07:01;11.10;99.90
9640;DHT22;51745;50.872;4.732;2022-12-29T00:09:52;11.20;99.90
9640;DHT22;51745;50.872;4.732;2022-12-29T00:12:41;11.30;99.90
9640;DHT22;51745;50.872;4.732;2022-12-29T00:15:45;11.10;99.90
9640;DHT22;51745;50.872;4.732;2022-12-29T00:18:34;11.10;99.90
9640;DHT22;51745;50.872;4.732;2022-12-29T00:24:28;11.10;99.90
9640;DHT22;51745;50.872;4.732;2022-12-29T00:27:34;11.00;99.90
9640;DHT22;51745;50.872;4.732;2022-12-29T00:33:46;11.10;99.90
9640;DHT22;51745;50.872;4.732;2022-12-29T00:36:52;11.40;99.90
9640;DHT22;51745;50.872;4.732;2022-12-29T00:39:40;11.30;99.90
9640;DHT22;51745;50.872;4.732;2022-12-29T00:42:47;11.30;99.90
9640;DHT22;51745;50.872;4.732;2022-12-29T00:45:52;11.20;99.90
9640;DHT22;51745;50.872;4.732;2022-12-29T00:48:39;11.40;99.90
9640;DHT22;51745;50.872;4.732;2022-12-29T00:51:44;11.20;99.90
9640;DHT22;51745;50.872;4.732;2022-12-29T00:54:33;11.30;99.90
9640;DHT22;51745;50.872;4.732;2022-12-29T00:57:21;11.30;99.90
9640;DHT22;51745;50.872;4.732;2022-12-29T01:00:11;11.30;99.90
9640;DHT22;51745;50.872;4.732;2022-12-29T01:02:59;11.40;99.90
9640;DHT22;51745;50.872;4.732;2022-12-29T01:08:35;11.30;99.90
9640;DHT22;51745;50.872;4.732;2022-12-29T01:11:23;11.30;99.90
9640;DHT22;51745;50.872;4.732;2022-12-29T01:14:10;11.20;99.90
9640;DHT22;51745;50.872;4.732;2022-12-29T01:16:59;12.20;99.90
9640;DHT22;51745;50.872;4.732;2022-12-29T01:19:47;10.50;99.90
9640;DHT22;51745;50.872;4.732;2022-12-29T01:22:35;11.20;99.90
9640;DHT22;51745;50.872;4.732;2022-12-29T01:25:22;11.20;99.90
9640;DHT22;51745;50.872;4.732;2022-12-29T01:28:11;11.70;99.90
9640;DHT22;51745;50.872;4.732;2022-12-29T01:30:59;11.10;99.90
9640;DHT22;51745;50.872;4.732;2022-12-29T01:33:48;11.00;99.90
9640;DHT22;51745;50.872;4.732;2022-12-29T01:36:36;10.90;99.90
9640;DHT22;51745;50.872;4.732;2022-12-29T01:39:23;10.70;99.90
9640;DHT22;51745;50.872;4.732;2022-12-29T01:42:14;10.50;99.90
9640;DHT22;51745;50.872;4.732;2022-12-29T01:45:07;10.50;99.90
9640;DHT22;51745;50.872;4.732;2022-12-29T01:47:56;10.50;99.90
9640;DHT22;51745;50.872;4.732;2022-12-29T01:50:46;10.40;99.90
9640;DHT22;51745;50.872;4.732;2022-12-29T01:53:37;10.40;99.90
9640;DHT22;51745;50.872;4.732;2022-12-29T01:56:25;10.30;99.90
9640;DHT22;51745;50.872;4.732;2022-12-29T01:59:14;10.20;99.90
9640;DHT22;51745;50.872;4.732;2022-12-29T02:02:05;10.10;99.90
9640;DHT22;51745;50.872;4.732;2022-12-29T02:04:54;10.10;99.90
9640;DHT22;51745;50.872;4.732;2022-12-29T02:07:51;10.10;99.90
9640;DHT22;51745;50.872;4.732;2022-12-29T02:10:39;10.00;99.90
9640;DHT22;51745;50.872;4.732;2022-12-29T02:13:28;10.00;99.90
9640;DHT22;51745;50.872;4.732;2022-12-29T02:16:20;10.00;99.90
9640;DHT22;51745;50.872;4.732;2022-12-29T02:19:26;9.90;99.90
9640;DHT22;51745;50.872;4.732;2022-12-29T02:22:22;9.80;99.90
9640;DHT22;51745;50.872;4.732;2022-12-29T02:28:45;9.90;99.90
9640;DHT22;51745;50.872;4.732;2022-12-29T02:31:41;9.90;99.90
9640;DHT22;51745;50.872;4.732;2022-12-29T02:34:35;9.90;99.90
9640;DHT22;51745;50.872;4.732;2022-12-29T02:37:29;9.90;99.90
9640;DHT22;51745;50.872;4.732;2022-12-29T02:40:22;9.90;99.90
9640;DHT22;51745;50.872;4.732;2022-12-29T02:43:14;9.90;99.90
9640;DHT22;51745;50.872;4.732;2022-12-29T02:46:04;9.90;99.90
9640;DHT22;51745;50.872;4.732;2022-12-29T02:48:58;9.90;99.90
9640;DHT22;51745;50.872;4.732;2022-12-29T02:51:50;9.90;99.90
9640;DHT22;51745;50.872;4.732;2022-12-29T02:54:39;9.90;99.90
9640;DHT22;51745;50.872;4.732;2022-12-29T02:57:32;9.90;99.90
9640;DHT22;51745;50.872;4.732;2022-12-29T03:00:20;9.90;99.90
9640;DHT22;51745;50.872;4.732;2022-12-29T03:03:12;9.80;99.90
9640;DHT22;51745;50.872;4.732;2022-12-29T03:06:14;10.00;99.90
9640;DHT22;51745;50.872;4.732;2022-12-29T03:09:10;10.20;99.90
9640;DHT22;51745;50.872;4.732;2022-12-29T03:12:08;9.80;99.90
9640;DHT22;51745;50.872;4.732;2022-12-29T03:15:00;9.80;99.90
9640;DHT22;51745;50.872;4.732;2022-12-29T03:18:06;9.50;99.90
9640;DHT22;51745;50.872;4.732;2022-12-29T03:20:58;9.20;99.90
9640;DHT22;51745;50.872;4.732;2022-12-29T03:23:49;9.20;99.90
9640;DHT22;51745;50.872;4.732;2022-12-29T03:26:36;9.10;99.90
9640;DHT22;51745;50.872;4.732;2022-12-29T03:29:24;8.90;99.90
9640;DHT22;51745;50.872;4.732;2022-12-29T03:32:12;9.00;99.90
9640;DHT22;51745;50.872;4.732;2022-12-29T03:35:01;9.00;99.90
9640;DHT22;51745;50.872;4.732;2022-12-29T03:37:50;9.00;99.90
9640;DHT22;51745;50.872;4.732;2022-12-29T03:40:42;9.20;99.90
9640;DHT22;51745;50.872;4.732;2022-12-29T03:43:31;9.10;99.90
9640;DHT22;51745;50.872;4.732;2022-12-29T03:46:19;9.10;99.90
9640;DHT22;51745;50.872;4.732;2022-12-29T03:49:07;9.50;99.90
9640;DHT22;51745;50.872;4.732;2022-12-29T03:51:55;9.30;99.90
9640;DHT22;51745;50.872;4.732;2022-12-29T03:54:44;9.10;99.90
9640;DHT22;51745;50.872;4.732;2022-12-29T03:57:33;9.20;99.90
9640;DHT22;51745;50.872;4.732;2022-12-29T04:00:25;9.20;99.90
9640;DHT22;51745;50.872;4.732;2022-12-29T04:03:13;9.20;99.90
9640;DHT22;51745;50.872;4.732;2022-12-29T04:06:01;9.90;99.90
9640;DHT22;51745;50.872;4.732;2022-12-29T04:08:56;9.10;99.90
9640;DHT22;51745;50.872;4.732;2022-12-29T04:11:43;9.10;99.90
9640;DHT22;51745;50.872;4.732;2022-12-29T04:14:36;9.00;99.90
9640;DHT22;51745;50.872;4.732;2022-12-29T04:17:23;9.00;99.90
9640;DHT22;51745;50.872;4.732;2022-12-29T04:20:12;8.90;99.90
9640;DHT22;51745;50.872;4.732;2022-12-29T04:23:20;8.90;99.90
9640;DHT22;51745;50.872;4.732;2022-12-29T04:26:08;8.90;99.90
9640;DHT22;51745;50.872;4.732;2022-12-29T04:29:09;9.10;99.90
9640;DHT22;51745;50.872;4.732;2022-12-29T04:32:18;8.90;99.90
9640;DHT22;51745;50.872;4.732;2022-12-29T04:35:08;8.80;99.90
9640;DHT22;51745;50.872;4.732;2022-12-29T04:37:56;8.60;99.90
9640;DHT22;51745;50.872;4.732;2022-12-29T04:40:44;8.80;99.90
9640;DHT22;51745;50.872;4.732;2022-12-29T04:43:33;8.90;99.90
9640;DHT22;51745;50.872;4.732;2022-12-29T04:46:40;8.80;99.90
9640;DHT22;51745;50.872;4.732;2022-12-29T04:49:38;8.90;99.90
9640;DHT22;51745;50.872;4.732;2022-12-29T04:52:40;9.00;99.90
9640;DHT22;51745;50.872;4.732;2022-12-29T04:55:32;9.00;99.90
9640;DHT22;51745;50.872;4.732;2022-12-29T04:58:20;9.00;99.90
9640;DHT22;51745;50.872;4.732;2022-12-29T05:01:09;9.20;99.90
9640;DHT22;51745;50.872;4.732;2022-12-29T05:03:57;9.50;99.90
9640;DHT22;51745;50.872;4.732;2022-12-29T05:06:46;9.40;99.90
9640;DHT22;51745;50.872;4.732;2022-12-29T05:09:35;9.60;99.90
9640;DHT22;51745;50.872;4.732;2022-12-29T05:12:25;9.70;99.90
9640;DHT22;51745;50.872;4.732;2022-12-29T05:15:17;9.60;99.90
9640;DHT22;51745;50.872;4.732;2022-12-29T05:18:05;9.70;99.90
9640;DHT22;51745;50.872;4.732;2022-12-29T05:20:52;9.60;99.90
9640;DHT22;51745;50.872;4.732;2022-12-29T05:23:46;9.80;99.90
9640;DHT22;51745;50.872;4.732;2022-12-29T05:26:34;10.10;99.90
9640;DHT22;51745;50.872;4.732;2022-12-29T05:29:44;9.70;99.90
9640;DHT22;51745;50.872;4.732;2022-12-29T05:32:32;9.60;99.90
9640;DHT22;51745;50.872;4.732;2022-12-29T05:35:20;9.50;99.90
9640;DHT22;51745;50.872;4.732;2022-12-29T05:38:11;9.50;99.90
9640;DHT22;51745;50.872;4.732;2022-12-29T05:41:01;9.30;99.90
9640;DHT22;51745;50.872;4.732;2022-12-29T05:44:15;9.30;99.90
9640;DHT22;51745;50.872;4.732;2022-12-29T05:47:23;9.70;99.90
9640;DHT22;51745;50.872;4.732;2022-12-29T05:50:24;10.00;99.90
9640;DHT22;51745;50.872;4.732;2022-12-29T05:53:30;9.90;99.90
9640;DHT22;51745;50.872;4.732;2022-12-29T05:56:20;9.90;99.90
9640;DHT22;51745;50.872;4.732;2022-12-29T05:59:15;9.90;99.90
9640;DHT22;51745;50.872;4.732;2022-12-29T06:02:03;10.40;99.90
9640;DHT22;51745;50.872;4.732;2022-12-29T06:04:51;10.00;99.90
9640;DHT22;51745;50.872;4.732;2022-12-29T06:07:39;9.90;99.90
9640;DHT22;51745;50.872;4.732;2022-12-29T06:10:27;9.80;99.90
9640;DHT22;51745;50.872;4.732;2022-12-29T06:13:25;9.80;99.90
9640;DHT22;51745;50.872;4.732;2022-12-29T06:16:14;9.80;99.90
9640;DHT22;51745;50.872;4.732;2022-12-29T06:19:03;9.80;99.90
9640;DHT22;51745;50.872;4.732;2022-12-29T06:21:50;10.00;99.90
9640;DHT22;51745;50.872;4.732;2022-12-29T06:24:38;10.00;99.90
9640;DHT22;51745;50.872;4.732;2022-12-29T06:27:26;9.80;99.90
9640;DHT22;51745;50.872;4.732;2022-12-29T06:30:15;9.60;99.90
9640;DHT22;51745;50.872;4.732;2022-12-29T06:33:03;10.00;99.90
9640;DHT22;51745;50.872;4.732;2022-12-29T06:35:50;10.00;99.90
9640;DHT22;51745;50.872;4.732;2022-12-29T06:38:38;10.30;99.90
9640;DHT22;51745;50.872;4.732;2022-12-29T06:41:25;9.90;99.90
9640;DHT22;51745;50.872;4.732;2022-12-29T06:44:36;9.90;99.90
9640;DHT22;51745;50.872;4.732;2022-12-29T06:47:29;10.00;99.90
9640;DHT22;51745;50.872;4.732;2022-12-29T06:50:17;10.00;99.90
9640;DHT22;51745;50.872;4.732;2022-12-29T06:53:05;10.00;99.90
9640;DHT22;51745;50.872;4.732;2022-12-29T06:55:53;9.90;99.90
9640;DHT22;51745;50.872;4.732;2022-12-29T06:58:45;10.20;99.90
9640;DHT22;51745;50.872;4.732;2022-12-29T07:01:38;10.20;99.90
9640;DHT22;51745;50.872;4.732;2022-12-29T07:04:27;10.30;99.90
9640;DHT22;51745;50.872;4.732;2022-12-29T07:07:14;10.30;99.90
9640;DHT22;51745;50.872;4.732;2022-12-29T07:10:02;10.40;99.90
9640;DHT22;51745;50.872;4.732;2022-12-29T07:12:50;10.30;99.90
9640;DHT22;51745;50.872;4.732;2022-12-29T07:15:40;10.20;99.90
9640;DHT22;51745;50.872;4.732;2022-12-29T07:18:28;10.40;99.90
9640;DHT22;51745;50.872;4.732;2022-12-29T07:21:18;10.30;99.90
9640;DHT22;51745;50.872;4.732;2022-12-29T07:24:07;10.40;99.90
9640;DHT22;51745;50.872;4.732;2022-12-29T07:26:54;10.40;99.90
9640;DHT22;51745;50.872;4.732;2022-12-29T07:29:42;10.20;99.90
9640;DHT22;51745;50.872;4.732;2022-12-29T07:32:32;9.90;99.90
9640;DHT22;51745;50.872;4.732;2022-12-29T07:35:20;10.20;99.90
9640;DHT22;51745;50.872;4.732;2022-12-29T07:38:09;10.10;99.90
9640;DHT22;51745;50.872;4.732;2022-12-29T07:40:57;10.20;99.90
9640;DHT22;51745;50.872;4.732;2022-12-29T07:43:46;10.30;99.90
9640;DHT22;51745;50.872;4.732;2022-12-29T07:46:53;10.30;99.90
9640;DHT22;51745;50.872;4.732;2022-12-29T07:49:43;10.10;99.90
9640;DHT22;51745;50.872;4.732;2022-12-29T07:52:31;10.00;99.90
9640;DHT22;51745;50.872;4.732;2022-12-29T07:55:21;9.90;99.90
9640;DHT22;51745;50.872;4.732;2022-12-29T07:58:08;10.00;99.90
9640;DHT22;51745;50.872;4.732;2022-12-29T08:00:58;10.10;99.90
9640;DHT22;51745;50.872;4.732;2022-12-29T08:03:47;10.20;99.90
9640;DHT22;51745;50.872;4.732;2022-12-29T08:06:42;10.10;99.90
9640;DHT22;51745;50.872;4.732;2022-12-29T08:09:31;9.90;99.90
9640;DHT22;51745;50.872;4.732;2022-12-29T08:12:23;10.10;99.90
9640;DHT22;51745;50.872;4.732;2022-12-29T08:15:16;10.00;99.90
9640;DHT22;51745;50.872;4.732;2022-12-29T08:18:03;10.00;99.90
9640;DHT22;51745;50.872;4.732;2022-12-29T08:20:51;10.10;99.90
9640;DHT22;51745;50.872;4.732;2022-12-29T08:23:40;10.10;99.90
9640;DHT22;51745;50.872;4.732;2022-12-29T08:26:28;10.30;99.90
9640;DHT22;51745;50.872;4.732;2022-12-29T08:29:18;10.00;99.90
9640;DHT22;51745;50.872;4.732;2022-12-29T08:32:05;10.10;99.90
9640;DHT22;51745;50.872;4.732;2022-12-29T08:34:53;10.10;99.90
9640;DHT22;51745;50.872;4.732;2022-12-29T08:37:41;10.10;99.90
9640;DHT22;51745;50.872;4.732;2022-12-29T08:40:28;10.20;99.90
9640;DHT22;51745;50.872;4.732;2022-12-29T08:43:16;10.20;99.90
9640;DHT22;51745;50.872;4.732;2022-12-29T08:46:05;10.20;99.90
9640;DHT22;51745;50.872;4.732;2022-12-29T08:48:53;10.10;99.90
9640;DHT22;51745;50.872;4.732;2022-12-29T08:54:28;10.20;99.90
9640;DHT22;51745;50.872;4.732;2022-12-29T08:57:15;9.40;99.90
9640;DHT22;51745;50.872;4.732;2022-12-29T09:00:29;10.40;99.90
9640;DHT22;51745;50.872;4.732;2022-12-29T09:03:18;10.10;99.90
9640;DHT22;51745;50.872;4.732;2022-12-29T09:06:25;10.40;99.90
9640;DHT22;51745;50.872;4.732;2022-12-29T09:09:13;10.00;99.90
9640;DHT22;51745;50.872;4.732;2022-12-29T09:12:01;10.20;99.90
9640;DHT22;51745;50.872;4.732;2022-12-29T09:14:51;10.30;99.90
9640;DHT22;51745;50.872;4.732;2022-12-29T09:17:38;10.20;99.90
9640;DHT22;51745;50.872;4.732;2022-12-29T09:20:32;10.30;99.90
9640;DHT22;51745;50.872;4.732;2022-12-29T09:23:20;8.20;99.90
9640;DHT22;51745;50.872;4.732;2022-12-29T09:26:08;10.00;99.90
9640;DHT22;51745;50.872;4.732;2022-12-29T09:28:55;10.00;99.90
9640;DHT22;51745;50.872;4.732;2022-12-29T09:31:43;10.10;99.90
9640;DHT22;51745;50.872;4.732;2022-12-29T09:34:32;10.20;99.90
9640;DHT22;51745;50.872;4.732;2022-12-29T09:37:21;10.30;99.90
9640;DHT22;51745;50.872;4.732;2022-12-29T09:40:14;10.40;99.90
9640;DHT22;51745;50.872;4.732;2022-12-29T09:43:11;10.50;99.90
9640;DHT22;51745;50.872;4.732;2022-12-29T09:46:03;10.60;99.90
9640;DHT22;51745;50.872;4.732;2022-12-29T09:48:57;10.50;99.90
9640;DHT22;51745;50.872;4.732;2022-12-29T09:51:48;10.40;99.90
9640;DHT22;51745;50.872;4.732;2022-12-29T09:54:40;10.40;99.90
9640;DHT22;51745;50.872;4.732;2022-12-29T09:57:38;10.60;99.90
9640;DHT22;51745;50.872;4.732;2022-12-29T10:00:28;10.60;99.90
9640;DHT22;51745;50.872;4.732;2022-12-29T10:03:22;10.70;99.90
9640;DHT22;51745;50.872;4.732;2022-12-29T10:06:12;10.80;99.90
9640;DHT22;51745;50.872;4.732;2022-12-29T10:09:02;10.70;99.90
9640;DHT22;51745;50.872;4.732;2022-12-29T10:12:01;10.80;99.90
9640;DHT22;51745;50.872;4.732;2022-12-29T10:14:53;10.80;99.90
9640;DHT22;51745;50.872;4.732;2022-12-29T10:17:44;11.00;99.90
9640;DHT22;51745;50.872;4.732;2022-12-29T10:20:37;10.70;99.90
9640;DHT22;51745;50.872;4.732;2022-12-29T10:23:26;11.00;99.90
9640;DHT22;51745;50.872;4.732;2022-12-29T10:26:15;10.50;99.90
9640;DHT22;51745;50.872;4.732;2022-12-29T10:29:04;10.50;99.90
9640;DHT22;51745;50.872;4.732;2022-12-29T10:31:54;10.20;99.90
9640;DHT22;51745;50.872;4.732;2022-12-29T10:34:47;10.50;99.90
9640;DHT22;51745;50.872;4.732;2022-12-29T10:37:38;10.60;99.90
9640;DHT22;51745;50.872;4.732;2022-12-29T10:40:33;10.60;99.90
9640;DHT22;51745;50.872;4.732;2022-12-29T10:43:25;10.60;99.90
9640;DHT22;51745;50.872;4.732;2022-12-29T10:46:15;10.70;99.90
9640;DHT22;51745;50.872;4.732;2022-12-29T10:51:54;10.80;99.90
9640;DHT22;51745;50.872;4.732;2022-12-29T10:54:45;10.80;99.90
9640;DHT22;51745;50.872;4.732;2022-12-29T10:57:33;10.90;99.90
9640;DHT22;51745;50.872;4.732;2022-12-29T11:00:23;10.90;99.90
9640;DHT22;51745;50.872;4.732;2022-12-29T11:03:20;10.90;99.90
9640;DHT22;51745;50.872;4.732;2022-12-29T11:06:17;10.90;99.90
9640;DHT22;51745;50.872;4.732;2022-12-29T11:09:08;10.80;99.90
9640;DHT22;51745;50.872;4.732;2022-12-29T11:11:58;10.90;99.90
9640;DHT22;51745;50.872;4.732;2022-12-29T11:14:46;11.00;99.90
9640;DHT22;51745;50.872;4.732;2022-12-29T11:17:42;10.90;99.90
9640;DHT22;51745;50.872;4.732;2022-12-29T11:20:35;11.00;99.90
9640;DHT22;51745;50.872;4.732;2022-12-29T11:23:30;11.20;99.90
9640;DHT22;51745;50.872;4.732;2022-12-29T11:26:19;11.10;99.90
9640;DHT22;51745;50.872;4.732;2022-12-29T11:34:43;11.10;99.90
9640;DHT22;51745;50.872;4.732;2022-12-29T11:37:36;11.10;99.90
9640;DHT22;51745;50.872;4.732;2022-12-29T11:40:26;11.10;99.90
9640;DHT22;51745;50.872;4.732;2022-12-29T11:43:17;11.10;99.90
9640;DHT22;51745;50.872;4.732;2022-12-29T11:46:12;11.10;99.90
9640;DHT22;51745;50.872;4.732;2022-12-29T11:49:01;11.00;99.90
9640;DHT22;51745;50.872;4.732;2022-12-29T11:51:50;10.90;99.90
9640;DHT22;51745;50.872;4.732;2022-12-29T11:54:42;10.80;99.90
9640;DHT22;51745;50.872;4.732;2022-12-29T11:57:29;11.20;99.90
9640;DHT22;51745;50.872;4.732;2022-12-29T12:00:21;10.80;99.90
9640;DHT22;51745;50.872;4.732;2022-12-29T12:03:12;10.80;99.90
9640;DHT22;51745;50.872;4.732;2022-12-29T12:06:01;10.70;99.90
9640;DHT22;51745;50.872;4.732;2022-12-29T12:08:51;10.60;99.90
9640;DHT22;51745;50.872;4.732;2022-12-29T12:11:42;10.60;99.90
9640;DHT22;51745;50.872;4.732;2022-12-29T12:14:32;10.60;99.90
9640;DHT22;51745;50.872;4.732;2022-12-29T12:17:30;10.50;99.90
9640;DHT22;51745;50.872;4.732;2022-12-29T12:20:26;10.50;99.90
9640;DHT22;51745;50.872;4.732;2022-12-29T12:23:22;10.50;99.90
9640;DHT22;51745;50.872;4.732;2022-12-29T12:26:15;10.40;99.90
9640;DHT22;51745;50.872;4.732;2022-12-29T12:31:57;10.50;99.90
9640;DHT22;51745;50.872;4.732;2022-12-29T12:34:45;10.40;99.90
9640;DHT22;51745;50.872;4.732;2022-12-29T12:37:37;10.40;99.90
9640;DHT22;51745;50.872;4.732;2022-12-29T12:43:22;10.50;99.90
9640;DHT22;51745;50.872;4.732;2022-12-29T12:46:25;10.50;99.90
9640;DHT22;51745;50.872;4.732;2022-12-29T12:52:11;10.30;99.90
9640;DHT22;51745;50.872;4.732;2022-12-29T12:55:10;10.40;99.90
9640;DHT22;51745;50.872;4.732;2022-12-29T12:58:03;10.50;99.90
9640;DHT22;51745;50.872;4.732;2022-12-29T13:01:03;10.50;99.90
9640;DHT22;51745;50.872;4.732;2022-12-29T13:06:45;10.70;99.90
9640;DHT22;51745;50.872;4.732;2022-12-29T13:12:28;10.70;99.90
9640;DHT22;51745;50.872;4.732;2022-12-29T13:15:19;10.70;99.90
9640;DHT22;51745;50.872;4.732;2022-12-29T13:20:57;10.80;99.90
9640;DHT22;51745;50.872;4.732;2022-12-29T13:23:50;10.70;99.90
9640;DHT22;51745;50.872;4.732;2022-12-29T13:26:41;10.60;99.90
9640;DHT22;51745;50.872;4.732;2022-12-29T13:29:36;10.60;99.90
9640;DHT22;51745;50.872;4.732;2022-12-29T13:32:30;10.10;99.90
9640;DHT22;51745;50.872;4.732;2022-12-29T13:35:28;10.60;99.90
9640;DHT22;51745;50.872;4.732;2022-12-29T13:38:21;10.50;99.90
9640;DHT22;51745;50.872;4.732;2022-12-29T13:41:11;10.50;99.90
9640;DHT22;51745;50.872;4.732;2022-12-29T13:44:00;10.40;99.90
9640;DHT22;51745;50.872;4.732;2022-12-29T13:46:51;10.30;99.90
9640;DHT22;51745;50.872;4.732;2022-12-29T13:49:40;10.60;99.90
9640;DHT22;51745;50.872;4.732;2022-12-29T13:52:28;10.20;99.90
9640;DHT22;51745;50.872;4.732;2022-12-29T13:55:23;9.60;99.90
9640;DHT22;51745;50.872;4.732;2022-12-29T13:58:13;10.00;99.90
9640;DHT22;51745;50.872;4.732;2022-12-29T14:01:08;10.50;99.90
9640;DHT22;51745;50.872;4.732;2022-12-29T14:03:58;9.90;99.90
9640;DHT22;51745;50.872;4.732;2022-12-29T14:09:41;10.10;99.90
9640;DHT22;51745;50.872;4.732;2022-12-29T14:12:34;10.20;99.90
9640;DHT22;51745;50.872;4.732;2022-12-29T14:15:23;10.20;99.90
9640;DHT22;51745;50.872;4.732;2022-12-29T14:18:12;10.20;99.90
9640;DHT22;51745;50.872;4.732;2022-12-29T14:21:03;10.00;99.90
9640;DHT22;51745;50.872;4.732;2022-12-29T14:23:57;9.80;99.90
9640;DHT22;51745;50.872;4.732;2022-12-29T14:26:48;9.70;99.90
9640;DHT22;51745;50.872;4.732;2022-12-29T14:29:42;12.20;99.90
9640;DHT22;51745;50.872;4.732;2022-12-29T14:32:35;9.40;99.90
9640;DHT22;51745;50.872;4.732;2022-12-29T14:35:39;9.10;99.90
9640;DHT22;51745;50.872;4.732;2022-12-29T14:38:30;9.10;99.90
9640;DHT22;51745;50.872;4.732;2022-12-29T14:44:25;9.60;99.90
9640;DHT22;51745;50.872;4.732;2022-12-29T14:47:15;9.60;99.90
9640;DHT22;51745;50.872;4.732;2022-12-29T14:50:06;9.60;99.90
9640;DHT22;51745;50.872;4.732;2022-12-29T14:52:55;10.50;99.90
9640;DHT22;51745;50.872;4.732;2022-12-29T14:55:54;10.00;99.90
9640;DHT22;51745;50.872;4.732;2022-12-29T14:58:44;9.70;99.90
9640;DHT22;51745;50.872;4.732;2022-12-29T15:01:38;9.70;99.90
9640;DHT22;51745;50.872;4.732;2022-12-29T15:04:31;9.70;99.90
9640;DHT22;51745;50.872;4.732;2022-12-29T15:10:13;9.80;99.90
9640;DHT22;51745;50.872;4.732;2022-12-29T15:13:05;9.80;99.90
9640;DHT22;51745;50.872;4.732;2022-12-29T15:15:53;9.80;99.90
9640;DHT22;51745;50.872;4.732;2022-12-29T15:18:41;9.80;99.90
9640;DHT22;51745;50.872;4.732;2022-12-29T15:21:31;9.80;99.90
9640;DHT22;51745;50.872;4.732;2022-12-29T15:24:19;9.70;99.90
9640;DHT22;51745;50.872;4.732;2022-12-29T15:29:58;9.60;99.90
9640;DHT22;51745;50.872;4.732;2022-12-29T15:32:48;9.40;99.90
9640;DHT22;51745;50.872;4.732;2022-12-29T15:35:37;9.10;99.90
9640;DHT22;51745;50.872;4.732;2022-12-29T15:38:25;8.70;99.90
9640;DHT22;51745;50.872;4.732;2022-12-29T15:41:26;8.10;99.90
9640;DHT22;51745;50.872;4.732;2022-12-29T15:44:19;7.70;99.90
9640;DHT22;51745;50.872;4.732;2022-12-29T15:47:11;7.30;99.90
9640;DHT22;51745;50.872;4.732;2022-12-29T15:50:02;7.10;99.90
9640;DHT22;51745;50.872;4.732;2022-12-29T15:52:50;7.00;99.90
9640;DHT22;51745;50.872;4.732;2022-12-29T15:55:39;6.90;99.90
9640;DHT22;51745;50.872;4.732;2022-12-29T15:58:27;7.00;99.90
9640;DHT22;51745;50.872;4.732;2022-12-29T16:01:16;6.90;99.90
9640;DHT22;51745;50.872;4.732;2022-12-29T16:04:07;6.90;99.90
9640;DHT22;51745;50.872;4.732;2022-12-29T16:06:59;6.80;99.90
9640;DHT22;51745;50.872;4.732;2022-12-29T16:09:47;6.70;99.90
9640;DHT22;51745;50.872;4.732;2022-12-29T16:12:36;6.70;99.90
9640;DHT22;51745;50.872;4.732;2022-12-29T16:15:24;6.70;99.90
9640;DHT22;51745;50.872;4.732;2022-12-29T16:18:18;6.70;99.90
9640;DHT22;51745;50.872;4.732;2022-12-29T16:21:14;6.60;99.90
9640;DHT22;51745;50.872;4.732;2022-12-29T16:24:05;6.50;99.90
9640;DHT22;51745;50.872;4.732;2022-12-29T16:26:54;6.50;99.90
9640;DHT22;51745;50.872;4.732;2022-12-29T16:29:42;6.50;99.90
9640;DHT22;51745;50.872;4.732;2022-12-29T16:32:30;6.50;99.90
9640;DHT22;51745;50.872;4.732;2022-12-29T16:35:19;6.40;99.90
9640;DHT22;51745;50.872;4.732;2022-12-29T16:38:12;6.30;99.90
9640;DHT22;51745;50.872;4.732;2022-12-29T16:41:00;6.20;99.90
9640;DHT22;51745;50.872;4.732;2022-12-29T16:43:49;6.20;99.90
9640;DHT22;51745;50.872;4.732;2022-12-29T16:50:10;6.20;99.90
9640;DHT22;51745;50.872;4.732;2022-12-29T16:52:58;6.20;99.90
9640;DHT22;51745;50.872;4.732;2022-12-29T16:55:49;6.20;99.90
9640;DHT22;51745;50.872;4.732;2022-12-29T16:58:37;6.20;99.90
9640;DHT22;51745;50.872;4.732;2022-12-29T17:01:28;6.20;99.90
9640;DHT22;51745;50.872;4.732;2022-12-29T17:04:16;6.10;99.90
9640;DHT22;51745;50.872;4.732;2022-12-29T17:07:08;6.10;99.90
9640;DHT22;51745;50.872;4.732;2022-12-29T17:09:59;6.10;99.90
9640;DHT22;51745;50.872;4.732;2022-12-29T17:12:48;6.20;99.90
9640;DHT22;51745;50.872;4.732;2022-12-29T17:15:36;6.10;99.90
9640;DHT22;51745;50.872;4.732;2022-12-29T17:18:23;6.20;99.90
9640;DHT22;51745;50.872;4.732;2022-12-29T17:21:11;6.40;99.90
9640;DHT22;51745;50.872;4.732;2022-12-29T17:23:58;6.40;99.90
9640;DHT22;51745;50.872;4.732;2022-12-29T17:26:47;6.50;99.90
9640;DHT22;51745;50.872;4.732;2022-12-29T17:29:38;6.50;99.90
9640;DHT22;51745;50.872;4.732;2022-12-29T17:32:29;6.60;99.90
9640;DHT22;51745;50.872;4.732;2022-12-29T17:35:18;6.40;99.90
9640;DHT22;51745;50.872;4.732;2022-12-29T17:38:10;6.80;99.90
9640;DHT22;51745;50.872;4.732;2022-12-29T17:41:03;7.00;99.90
9640;DHT22;51745;50.872;4.732;2022-12-29T17:43:50;6.90;99.90
9640;DHT22;51745;50.872;4.732;2022-12-29T17:46:39;7.00;99.90
9640;DHT22;51745;50.872;4.732;2022-12-29T17:49:27;7.20;99.90
9640;DHT22;51745;50.872;4.732;2022-12-29T17:52:15;7.30;99.90
9640;DHT22;51745;50.872;4.732;2022-12-29T17:55:03;7.40;99.90
9640;DHT22;51745;50.872;4.732;2022-12-29T17:57:52;7.10;99.90
9640;DHT22;51745;50.872;4.732;2022-12-29T18:00:40;7.20;99.90
9640;DHT22;51745;50.872;4.732;2022-12-29T18:03:30;7.30;99.90
9640;DHT22;51745;50.872;4.732;2022-12-29T18:06:18;7.30;99.90
9640;DHT22;51745;50.872;4.732;2022-12-29T18:09:06;7.20;99.90
9640;DHT22;51745;50.872;4.732;2022-12-29T18:11:56;7.10;99.90
9640;DHT22;51745;50.872;4.732;2022-12-29T18:14:43;7.00;99.90
9640;DHT22;51745;50.872;4.732;2022-12-29T18:17:30;7.00;99.90
9640;DHT22;51745;50.872;4.732;2022-12-29T18:20:20;7.00;99.90
9640;DHT22;51745;50.872;4.732;2022-12-29T18:23:09;7.00;99.90
9640;DHT22;51745;50.872;4.732;2022-12-29T18:26:03;6.90;99.90
9640;DHT22;51745;50.872;4.732;2022-12-29T18:28:50;7.00;99.90
9640;DHT22;51745;50.872;4.732;2022-12-29T18:31:39;6.90;99.90
9640;DHT22;51745;50.872;4.732;2022-12-29T18:34:26;7.00;99.90
9640;DHT22;51745;50.872;4.732;2022-12-29T18:37:15;7.00;99.90
9640;DHT22;51745;50.872;4.732;2022-12-29T18:40:03;7.00;99.90
9640;DHT22;51745;50.872;4.732;2022-12-29T18:42:53;7.00;99.90
9640;DHT22;51745;50.872;4.732;2022-12-29T18:45:41;7.00;99.90
9640;DHT22;51745;50.872;4.732;2022-12-29T18:48:30;7.10;99.90
9640;DHT22;51745;50.872;4.732;2022-12-29T18:51:18;7.10;99.90
9640;DHT22;51745;50.872;4.732;2022-12-29T18:54:09;7.10;99.90
9640;DHT22;51745;50.872;4.732;2022-12-29T18:57:00;7.10;99.90
9640;DHT22;51745;50.872;4.732;2022-12-29T18:59:47;7.00;99.90
9640;DHT22;51745;50.872;4.732;2022-12-29T19:02:35;7.10;99.90
9640;DHT22;51745;50.872;4.732;2022-12-29T19:05:25;7.00;99.90
9640;DHT22;51745;50.872;4.732;2022-12-29T19:11:03;7.10;99.90
9640;DHT22;51745;50.872;4.732;2022-12-29T19:13:50;7.30;99.90
9640;DHT22;51745;50.872;4.732;2022-12-29T19:22:14;7.40;99.90
9640;DHT22;51745;50.872;4.732;2022-12-29T19:25:01;7.40;99.90
9640;DHT22;51745;50.872;4.732;2022-12-29T19:27:51;7.20;99.90
9640;DHT22;51745;50.872;4.732;2022-12-29T19:30:39;7.10;99.90
9640;DHT22;51745;50.872;4.732;2022-12-29T19:33:26;7.10;99.90